sensor_id;sensor_type;location;lat;lon;timestamp;P1;durP1;ratioP1;P2;durP2;ratioP2
26742;SDS011;14341;51.256;22.478;2023-04-29T00:00:05;23.45;;;14.93;;
26742;SDS011;14341;51.256;22.478;2023-04-29T00:03:13;25.13;;;15.23;;
26742;SDS011;14341;51.256;22.478;2023-04-29T00:06:16;20.52;;;14.45;;
26742;SDS011;14341;51.256;22.478;2023-04-29T00:09:20;25.02;;;15.10;;
26742;SDS011;14341;51.256;22.478;2023-04-29T00:12:24;24.70;;;14.43;;
26742;SDS011;14341;51.256;22.478;2023-04-29T00:15:28;22.00;;;13.90;;
26742;SDS011;14341;51.256;22.478;2023-04-29T00:18:31;23.05;;;14.40;;
26742;SDS011;14341;51.256;22.478;2023-04-29T00:21:37;23.17;;;13.27;;
26742;SDS011;14341;51.256;22.478;2023-04-29T00:24:40;20.50;;;13.43;;
26742;SDS011;14341;51.256;22.478;2023-04-29T00:27:44;18.15;;;13.30;;
26742;SDS011;14341;51.256;22.478;2023-04-29T00:30:48;18.60;;;13.23;;
26742;SDS011;14341;51.256;22.478;2023-04-29T00:33:51;21.73;;;13.18;;
26742;SDS011;14341;51.256;22.478;2023-04-29T00:36:54;20.85;;;13.18;;
26742;SDS011;14341;51.256;22.478;2023-04-29T00:39:58;20.23;;;13.35;;
26742;SDS011;14341;51.256;22.478;2023-04-29T00:43:02;18.00;;;12.13;;
26742;SDS011;14341;51.256;22.478;2023-04-29T00:46:06;17.80;;;12.15;;
26742;SDS011;14341;51.256;22.478;2023-04-29T00:49:11;19.05;;;13.05;;
26742;SDS011;14341;51.256;22.478;2023-04-29T00:52:16;25.27;;;13.10;;
26742;SDS011;14341;51.256;22.478;2023-04-29T00:55:20;18.80;;;13.32;;
26742;SDS011;14341;51.256;22.478;2023-04-29T00:58:27;17.55;;;12.88;;
26742;SDS011;14341;51.256;22.478;2023-04-29T01:01:34;21.63;;;12.88;;
26742;SDS011;14341;51.256;22.478;2023-04-29T01:04:38;18.17;;;13.13;;
26742;SDS011;14341;51.256;22.478;2023-04-29T01:07:43;21.30;;;12.98;;
26742;SDS011;14341;51.256;22.478;2023-04-29T01:10:52;20.40;;;13.10;;
26742;SDS011;14341;51.256;22.478;2023-04-29T01:14:00;20.00;;;13.25;;
26742;SDS011;14341;51.256;22.478;2023-04-29T01:17:09;21.23;;;12.80;;
26742;SDS011;14341;51.256;22.478;2023-04-29T01:20:17;18.95;;;12.50;;
26742;SDS011;14341;51.256;22.478;2023-04-29T01:23:25;18.05;;;12.15;;
26742;SDS011;14341;51.256;22.478;2023-04-29T01:26:29;20.52;;;13.13;;
26742;SDS011;14341;51.256;22.478;2023-04-29T01:29:52;19.33;;;12.52;;
26742;SDS011;14341;51.256;22.478;2023-04-29T01:33:02;26.30;;;12.63;;
26742;SDS011;14341;51.256;22.478;2023-04-29T01:36:19;19.73;;;12.38;;
26742;SDS011;14341;51.256;22.478;2023-04-29T01:39:31;19.38;;;11.48;;
26742;SDS011;14341;51.256;22.478;2023-04-29T01:42:44;16.55;;;11.35;;
26742;SDS011;14341;51.256;22.478;2023-04-29T01:45:51;18.08;;;10.98;;
26742;SDS011;14341;51.256;22.478;2023-04-29T01:48:56;16.70;;;11.00;;
26742;SDS011;14341;51.256;22.478;2023-04-29T01:51:59;21.65;;;11.77;;
26742;SDS011;14341;51.256;22.478;2023-04-29T01:55:06;23.05;;;12.02;;
26742;SDS011;14341;51.256;22.478;2023-04-29T01:58:17;18.63;;;11.35;;
26742;SDS011;14341;51.256;22.478;2023-04-29T02:01:39;17.27;;;11.30;;
26742;SDS011;14341;51.256;22.478;2023-04-29T02:04:43;17.95;;;11.13;;
26742;SDS011;14341;51.256;22.478;2023-04-29T02:07:46;16.67;;;10.98;;
26742;SDS011;14341;51.256;22.478;2023-04-29T02:10:54;18.67;;;12.27;;
26742;SDS011;14341;51.256;22.478;2023-04-29T02:14:13;18.80;;;11.63;;
26742;SDS011;14341;51.256;22.478;2023-04-29T02:17:17;16.35;;;11.93;;
26742;SDS011;14341;51.256;22.478;2023-04-29T02:20:20;18.42;;;11.60;;
26742;SDS011;14341;51.256;22.478;2023-04-29T02:23:23;19.95;;;12.13;;
26742;SDS011;14341;51.256;22.478;2023-04-29T02:26:28;22.42;;;11.80;;
26742;SDS011;14341;51.256;22.478;2023-04-29T02:29:31;18.38;;;11.55;;
26742;SDS011;14341;51.256;22.478;2023-04-29T02:32:34;15.00;;;10.32;;
26742;SDS011;14341;51.256;22.478;2023-04-29T02:35:39;16.50;;;11.20;;
26742;SDS011;14341;51.256;22.478;2023-04-29T02:38:43;19.48;;;11.48;;
26742;SDS011;14341;51.256;22.478;2023-04-29T02:41:48;16.77;;;10.80;;
26742;SDS011;14341;51.256;22.478;2023-04-29T02:44:51;16.65;;;10.75;;
26742;SDS011;14341;51.256;22.478;2023-04-29T02:47:54;20.05;;;11.02;;
26742;SDS011;14341;51.256;22.478;2023-04-29T02:50:58;19.10;;;10.48;;
26742;SDS011;14341;51.256;22.478;2023-04-29T02:54:01;19.50;;;10.88;;
26742;SDS011;14341;51.256;22.478;2023-04-29T02:57:06;16.30;;;10.93;;
26742;SDS011;14341;51.256;22.478;2023-04-29T03:00:09;17.70;;;10.73;;
26742;SDS011;14341;51.256;22.478;2023-04-29T03:03:13;18.10;;;10.43;;
26742;SDS011;14341;51.256;22.478;2023-04-29T03:06:16;16.92;;;10.68;;
26742;SDS011;14341;51.256;22.478;2023-04-29T03:09:19;16.58;;;10.75;;
26742;SDS011;14341;51.256;22.478;2023-04-29T03:12:24;18.23;;;10.70;;
26742;SDS011;14341;51.256;22.478;2023-04-29T03:15:28;16.35;;;11.05;;
26742;SDS011;14341;51.256;22.478;2023-04-29T03:18:31;22.95;;;12.13;;
26742;SDS011;14341;51.256;22.478;2023-04-29T03:21:34;17.83;;;11.48;;
26742;SDS011;14341;51.256;22.478;2023-04-29T03:24:38;17.33;;;11.75;;
26742;SDS011;14341;51.256;22.478;2023-04-29T03:27:42;19.52;;;12.35;;
26742;SDS011;14341;51.256;22.478;2023-04-29T03:30:46;19.20;;;13.00;;
26742;SDS011;14341;51.256;22.478;2023-04-29T03:33:49;17.45;;;11.82;;
26742;SDS011;14341;51.256;22.478;2023-04-29T03:36:54;27.80;;;13.07;;
26742;SDS011;14341;51.256;22.478;2023-04-29T03:39:57;17.38;;;12.35;;
26742;SDS011;14341;51.256;22.478;2023-04-29T03:43:02;21.63;;;11.93;;
26742;SDS011;14341;51.256;22.478;2023-04-29T03:46:07;20.20;;;13.20;;
26742;SDS011;14341;51.256;22.478;2023-04-29T03:49:10;24.25;;;13.90;;
26742;SDS011;14341;51.256;22.478;2023-04-29T03:52:13;18.55;;;12.35;;
26742;SDS011;14341;51.256;22.478;2023-04-29T03:55:19;24.17;;;14.40;;
26742;SDS011;14341;51.256;22.478;2023-04-29T03:58:24;24.60;;;15.43;;
26742;SDS011;14341;51.256;22.478;2023-04-29T04:01:27;23.00;;;14.00;;
26742;SDS011;14341;51.256;22.478;2023-04-29T04:04:31;20.48;;;13.65;;
26742;SDS011;14341;51.256;22.478;2023-04-29T04:07:35;21.00;;;12.48;;
26742;SDS011;14341;51.256;22.478;2023-04-29T04:10:56;19.88;;;11.80;;
26742;SDS011;14341;51.256;22.478;2023-04-29T04:14:14;17.92;;;11.20;;
26742;SDS011;14341;51.256;22.478;2023-04-29T04:17:19;21.45;;;11.93;;
26742;SDS011;14341;51.256;22.478;2023-04-29T04:20:25;22.52;;;11.80;;
26742;SDS011;14341;51.256;22.478;2023-04-29T04:23:28;17.42;;;10.63;;
26742;SDS011;14341;51.256;22.478;2023-04-29T04:26:36;18.50;;;11.23;;
26742;SDS011;14341;51.256;22.478;2023-04-29T04:29:54;22.83;;;12.02;;
26742;SDS011;14341;51.256;22.478;2023-04-29T04:33:01;20.40;;;10.88;;
26742;SDS011;14341;51.256;22.478;2023-04-29T04:36:07;17.88;;;10.50;;
26742;SDS011;14341;51.256;22.478;2023-04-29T04:39:10;25.52;;;11.68;;
26742;SDS011;14341;51.256;22.478;2023-04-29T04:42:14;19.95;;;11.65;;
26742;SDS011;14341;51.256;22.478;2023-04-29T04:45:21;22.02;;;11.55;;
26742;SDS011;14341;51.256;22.478;2023-04-29T04:48:25;20.10;;;11.60;;
26742;SDS011;14341;51.256;22.478;2023-04-29T04:51:28;18.90;;;10.73;;
26742;SDS011;14341;51.256;22.478;2023-04-29T04:54:33;24.10;;;11.77;;
26742;SDS011;14341;51.256;22.478;2023-04-29T04:57:46;15.80;;;9.82;;
26742;SDS011;14341;51.256;22.478;2023-04-29T05:00:51;20.25;;;10.75;;
26742;SDS011;14341;51.256;22.478;2023-04-29T05:03:55;25.98;;;10.88;;
26742;SDS011;14341;51.256;22.478;2023-04-29T05:06:59;17.10;;;10.50;;
26742;SDS011;14341;51.256;22.478;2023-04-29T05:10:08;16.25;;;10.77;;
26742;SDS011;14341;51.256;22.478;2023-04-29T05:13:19;23.40;;;10.65;;
26742;SDS011;14341;51.256;22.478;2023-04-29T05:16:24;21.17;;;10.52;;
26742;SDS011;14341;51.256;22.478;2023-04-29T05:19:28;21.38;;;10.73;;
26742;SDS011;14341;51.256;22.478;2023-04-29T05:22:31;17.17;;;11.30;;
26742;SDS011;14341;51.256;22.478;2023-04-29T05:25:35;24.77;;;10.80;;
26742;SDS011;14341;51.256;22.478;2023-04-29T05:28:39;23.60;;;10.75;;
26742;SDS011;14341;51.256;22.478;2023-04-29T05:31:44;21.58;;;11.75;;
26742;SDS011;14341;51.256;22.478;2023-04-29T05:34:48;18.23;;;11.23;;
26742;SDS011;14341;51.256;22.478;2023-04-29T05:37:51;21.05;;;10.85;;
26742;SDS011;14341;51.256;22.478;2023-04-29T05:41:02;21.45;;;11.13;;
26742;SDS011;14341;51.256;22.478;2023-04-29T05:44:41;19.42;;;11.25;;
26742;SDS011;14341;51.256;22.478;2023-04-29T05:47:46;18.60;;;10.18;;
26742;SDS011;14341;51.256;22.478;2023-04-29T05:50:50;15.18;;;9.23;;
26742;SDS011;14341;51.256;22.478;2023-04-29T05:53:54;21.98;;;10.13;;
26742;SDS011;14341;51.256;22.478;2023-04-29T05:57:00;26.02;;;10.43;;
26742;SDS011;14341;51.256;22.478;2023-04-29T06:00:04;19.27;;;9.57;;
26742;SDS011;14341;51.256;22.478;2023-04-29T06:03:15;12.65;;;7.15;;
26742;SDS011;14341;51.256;22.478;2023-04-29T06:06:18;19.52;;;9.10;;
26742;SDS011;14341;51.256;22.478;2023-04-29T06:09:41;15.48;;;9.00;;
26742;SDS011;14341;51.256;22.478;2023-04-29T06:12:45;17.35;;;8.77;;
26742;SDS011;14341;51.256;22.478;2023-04-29T06:15:51;16.58;;;8.60;;
26742;SDS011;14341;51.256;22.478;2023-04-29T06:18:56;20.40;;;8.65;;
26742;SDS011;14341;51.256;22.478;2023-04-29T06:21:59;15.20;;;8.00;;
26742;SDS011;14341;51.256;22.478;2023-04-29T06:25:03;13.38;;;8.00;;
26742;SDS011;14341;51.256;22.478;2023-04-29T06:28:20;12.25;;;7.60;;
26742;SDS011;14341;51.256;22.478;2023-04-29T06:31:23;14.45;;;7.90;;
26742;SDS011;14341;51.256;22.478;2023-04-29T06:34:33;15.02;;;7.32;;
26742;SDS011;14341;51.256;22.478;2023-04-29T06:37:58;11.88;;;7.35;;
26742;SDS011;14341;51.256;22.478;2023-04-29T06:41:20;11.98;;;6.90;;
26742;SDS011;14341;51.256;22.478;2023-04-29T06:44:26;10.55;;;6.78;;
26742;SDS011;14341;51.256;22.478;2023-04-29T06:47:48;10.25;;;6.40;;
26742;SDS011;14341;51.256;22.478;2023-04-29T06:51:04;13.30;;;7.05;;
26742;SDS011;14341;51.256;22.478;2023-04-29T06:54:11;9.45;;;6.75;;
26742;SDS011;14341;51.256;22.478;2023-04-29T06:57:15;16.23;;;6.75;;
26742;SDS011;14341;51.256;22.478;2023-04-29T07:00:19;15.38;;;6.80;;
26742;SDS011;14341;51.256;22.478;2023-04-29T07:03:23;12.48;;;6.90;;
26742;SDS011;14341;51.256;22.478;2023-04-29T07:06:28;11.52;;;6.43;;
26742;SDS011;14341;51.256;22.478;2023-04-29T07:09:32;12.15;;;6.35;;
26742;SDS011;14341;51.256;22.478;2023-04-29T07:12:37;12.38;;;6.60;;
26742;SDS011;14341;51.256;22.478;2023-04-29T07:15:41;12.95;;;7.15;;
26742;SDS011;14341;51.256;22.478;2023-04-29T07:18:44;15.40;;;6.60;;
26742;SDS011;14341;51.256;22.478;2023-04-29T07:21:49;9.23;;;6.22;;
26742;SDS011;14341;51.256;22.478;2023-04-29T07:24:52;12.27;;;6.05;;
26742;SDS011;14341;51.256;22.478;2023-04-29T07:27:56;14.77;;;6.30;;
26742;SDS011;14341;51.256;22.478;2023-04-29T07:30:59;14.52;;;6.78;;
26742;SDS011;14341;51.256;22.478;2023-04-29T07:34:04;16.13;;;6.50;;
26742;SDS011;14341;51.256;22.478;2023-04-29T07:37:09;11.50;;;6.15;;
26742;SDS011;14341;51.256;22.478;2023-04-29T07:40:13;11.45;;;6.45;;
26742;SDS011;14341;51.256;22.478;2023-04-29T07:43:17;10.00;;;5.75;;
26742;SDS011;14341;51.256;22.478;2023-04-29T07:46:20;13.18;;;6.20;;
26742;SDS011;14341;51.256;22.478;2023-04-29T07:49:24;15.77;;;6.55;;
26742;SDS011;14341;51.256;22.478;2023-04-29T07:52:29;10.05;;;5.88;;
26742;SDS011;14341;51.256;22.478;2023-04-29T07:55:32;9.23;;;5.97;;
26742;SDS011;14341;51.256;22.478;2023-04-29T07:58:36;12.80;;;6.43;;
26742;SDS011;14341;51.256;22.478;2023-04-29T08:01:39;14.07;;;6.25;;
26742;SDS011;14341;51.256;22.478;2023-04-29T08:04:42;9.70;;;5.95;;
26742;SDS011;14341;51.256;22.478;2023-04-29T08:07:48;13.75;;;6.43;;
26742;SDS011;14341;51.256;22.478;2023-04-29T08:10:52;13.15;;;6.00;;
26742;SDS011;14341;51.256;22.478;2023-04-29T08:13:55;16.85;;;6.50;;
26742;SDS011;14341;51.256;22.478;2023-04-29T08:17:00;14.23;;;6.40;;
26742;SDS011;14341;51.256;22.478;2023-04-29T08:20:04;14.43;;;6.32;;
26742;SDS011;14341;51.256;22.478;2023-04-29T08:23:11;11.98;;;6.82;;
26742;SDS011;14341;51.256;22.478;2023-04-29T08:26:14;14.07;;;6.40;;
26742;SDS011;14341;51.256;22.478;2023-04-29T08:29:17;18.85;;;7.40;;
26742;SDS011;14341;51.256;22.478;2023-04-29T08:32:21;10.52;;;6.32;;
26742;SDS011;14341;51.256;22.478;2023-04-29T08:35:24;14.50;;;6.57;;
26742;SDS011;14341;51.256;22.478;2023-04-29T08:38:29;31.38;;;7.63;;
26742;SDS011;14341;51.256;22.478;2023-04-29T08:41:33;12.43;;;6.68;;
26742;SDS011;14341;51.256;22.478;2023-04-29T08:44:38;11.98;;;6.90;;
26742;SDS011;14341;51.256;22.478;2023-04-29T08:47:42;12.82;;;6.88;;
26742;SDS011;14341;51.256;22.478;2023-04-29T08:50:46;10.70;;;6.30;;
26742;SDS011;14341;51.256;22.478;2023-04-29T08:53:50;9.25;;;5.82;;
26742;SDS011;14341;51.256;22.478;2023-04-29T08:56:54;14.80;;;6.60;;
26742;SDS011;14341;51.256;22.478;2023-04-29T08:59:58;15.80;;;7.20;;
26742;SDS011;14341;51.256;22.478;2023-04-29T09:03:03;16.90;;;6.15;;
26742;SDS011;14341;51.256;22.478;2023-04-29T09:06:16;14.13;;;6.47;;
26742;SDS011;14341;51.256;22.478;2023-04-29T09:09:23;18.02;;;6.70;;
26742;SDS011;14341;51.256;22.478;2023-04-29T09:12:27;11.63;;;6.80;;
26742;SDS011;14341;51.256;22.478;2023-04-29T09:15:34;15.65;;;6.90;;
26742;SDS011;14341;51.256;22.478;2023-04-29T09:18:41;16.75;;;6.50;;
26742;SDS011;14341;51.256;22.478;2023-04-29T09:21:50;10.50;;;6.95;;
26742;SDS011;14341;51.256;22.478;2023-04-29T09:28:14;15.48;;;7.10;;
26742;SDS011;14341;51.256;22.478;2023-04-29T09:31:25;11.98;;;7.20;;
26742;SDS011;14341;51.256;22.478;2023-04-29T09:34:30;16.65;;;7.40;;
26742;SDS011;14341;51.256;22.478;2023-04-29T09:37:36;11.40;;;6.82;;
26742;SDS011;14341;51.256;22.478;2023-04-29T09:40:41;16.73;;;7.40;;
26742;SDS011;14341;51.256;22.478;2023-04-29T09:44:02;16.65;;;6.70;;
26742;SDS011;14341;51.256;22.478;2023-04-29T09:47:07;15.07;;;7.05;;
26742;SDS011;14341;51.256;22.478;2023-04-29T09:50:11;16.35;;;7.28;;
26742;SDS011;14341;51.256;22.478;2023-04-29T09:53:27;14.55;;;7.38;;
26742;SDS011;14341;51.256;22.478;2023-04-29T09:56:35;11.75;;;6.72;;
26742;SDS011;14341;51.256;22.478;2023-04-29T09:59:51;9.07;;;7.00;;
26742;SDS011;14341;51.256;22.478;2023-04-29T10:02:54;11.45;;;6.68;;
26742;SDS011;14341;51.256;22.478;2023-04-29T10:06:02;11.90;;;6.78;;
26742;SDS011;14341;51.256;22.478;2023-04-29T10:09:06;13.18;;;7.20;;
26742;SDS011;14341;51.256;22.478;2023-04-29T10:12:18;10.53;;;6.97;;
26742;SDS011;14341;51.256;22.478;2023-04-29T10:15:25;11.35;;;6.35;;
26742;SDS011;14341;51.256;22.478;2023-04-29T10:18:34;9.80;;;6.25;;
26742;SDS011;14341;51.256;22.478;2023-04-29T10:21:39;8.30;;;5.95;;
26742;SDS011;14341;51.256;22.478;2023-04-29T10:24:42;14.00;;;5.90;;
26742;SDS011;14341;51.256;22.478;2023-04-29T10:27:48;10.45;;;6.35;;
26742;SDS011;14341;51.256;22.478;2023-04-29T10:30:53;10.95;;;5.90;;
26742;SDS011;14341;51.256;22.478;2023-04-29T10:33:59;12.90;;;5.80;;
26742;SDS011;14341;51.256;22.478;2023-04-29T10:37:03;9.30;;;5.75;;
26742;SDS011;14341;51.256;22.478;2023-04-29T10:40:09;11.23;;;6.43;;
26742;SDS011;14341;51.256;22.478;2023-04-29T10:43:21;10.27;;;6.00;;
26742;SDS011;14341;51.256;22.478;2023-04-29T10:46:25;9.23;;;5.75;;
26742;SDS011;14341;51.256;22.478;2023-04-29T10:49:32;8.70;;;5.60;;
26742;SDS011;14341;51.256;22.478;2023-04-29T10:52:51;7.47;;;5.30;;
26742;SDS011;14341;51.256;22.478;2023-04-29T10:55:57;10.60;;;4.55;;
26742;SDS011;14341;51.256;22.478;2023-04-29T10:59:02;10.57;;;5.85;;
26742;SDS011;14341;51.256;22.478;2023-04-29T11:02:06;10.30;;;5.55;;
26742;SDS011;14341;51.256;22.478;2023-04-29T11:05:11;13.75;;;6.00;;
26742;SDS011;14341;51.256;22.478;2023-04-29T11:08:19;12.55;;;6.20;;
26742;SDS011;14341;51.256;22.478;2023-04-29T11:11:38;9.70;;;6.07;;
26742;SDS011;14341;51.256;22.478;2023-04-29T11:14:49;10.05;;;5.95;;
26742;SDS011;14341;51.256;22.478;2023-04-29T11:17:56;10.85;;;5.72;;
26742;SDS011;14341;51.256;22.478;2023-04-29T11:21:11;10.25;;;5.50;;
26742;SDS011;14341;51.256;22.478;2023-04-29T11:24:15;8.63;;;5.22;;
26742;SDS011;14341;51.256;22.478;2023-04-29T11:27:18;8.23;;;5.50;;
26742;SDS011;14341;51.256;22.478;2023-04-29T11:30:27;12.43;;;6.45;;
26742;SDS011;14341;51.256;22.478;2023-04-29T11:33:31;14.05;;;6.50;;
26742;SDS011;14341;51.256;22.478;2023-04-29T11:36:35;11.65;;;5.65;;
26742;SDS011;14341;51.256;22.478;2023-04-29T11:39:38;14.50;;;8.10;;
26742;SDS011;14341;51.256;22.478;2023-04-29T11:42:42;16.30;;;6.20;;
26742;SDS011;14341;51.256;22.478;2023-04-29T11:45:49;12.60;;;5.82;;
26742;SDS011;14341;51.256;22.478;2023-04-29T11:48:56;12.73;;;5.88;;
26742;SDS011;14341;51.256;22.478;2023-04-29T11:52:00;11.52;;;6.32;;
26742;SDS011;14341;51.256;22.478;2023-04-29T11:55:04;9.80;;;5.90;;
26742;SDS011;14341;51.256;22.478;2023-04-29T11:58:08;22.02;;;7.03;;
26742;SDS011;14341;51.256;22.478;2023-04-29T12:01:12;8.90;;;5.22;;
26742;SDS011;14341;51.256;22.478;2023-04-29T12:04:19;6.93;;;4.80;;
26742;SDS011;14341;51.256;22.478;2023-04-29T12:07:23;9.63;;;5.38;;
26742;SDS011;14341;51.256;22.478;2023-04-29T12:10:26;12.75;;;6.10;;
26742;SDS011;14341;51.256;22.478;2023-04-29T12:13:29;14.35;;;5.63;;
26742;SDS011;14341;51.256;22.478;2023-04-29T12:16:34;7.20;;;5.10;;
26742;SDS011;14341;51.256;22.478;2023-04-29T12:19:39;11.93;;;5.22;;
26742;SDS011;14341;51.256;22.478;2023-04-29T12:22:44;11.63;;;5.03;;
26742;SDS011;14341;51.256;22.478;2023-04-29T12:25:49;11.93;;;5.00;;
26742;SDS011;14341;51.256;22.478;2023-04-29T12:28:53;11.43;;;5.60;;
26742;SDS011;14341;51.256;22.478;2023-04-29T12:32:00;9.27;;;4.70;;
26742;SDS011;14341;51.256;22.478;2023-04-29T12:35:03;13.65;;;4.70;;
26742;SDS011;14341;51.256;22.478;2023-04-29T12:38:07;11.00;;;4.60;;
26742;SDS011;14341;51.256;22.478;2023-04-29T12:41:11;7.43;;;4.70;;
26742;SDS011;14341;51.256;22.478;2023-04-29T12:44:18;11.65;;;4.45;;
26742;SDS011;14341;51.256;22.478;2023-04-29T12:47:23;12.73;;;5.20;;
26742;SDS011;14341;51.256;22.478;2023-04-29T12:50:35;11.93;;;4.78;;
26742;SDS011;14341;51.256;22.478;2023-04-29T12:53:39;10.80;;;4.80;;
26742;SDS011;14341;51.256;22.478;2023-04-29T12:56:42;8.88;;;4.63;;
26742;SDS011;14341;51.256;22.478;2023-04-29T12:59:49;17.10;;;5.88;;
26742;SDS011;14341;51.256;22.478;2023-04-29T13:02:54;7.93;;;4.35;;
26742;SDS011;14341;51.256;22.478;2023-04-29T13:05:58;10.80;;;4.72;;
26742;SDS011;14341;51.256;22.478;2023-04-29T13:09:03;9.73;;;5.10;;
26742;SDS011;14341;51.256;22.478;2023-04-29T13:12:06;12.00;;;5.00;;
26742;SDS011;14341;51.256;22.478;2023-04-29T13:15:10;9.45;;;4.97;;
26742;SDS011;14341;51.256;22.478;2023-04-29T13:18:15;7.82;;;4.95;;
26742;SDS011;14341;51.256;22.478;2023-04-29T13:21:19;8.05;;;4.68;;
26742;SDS011;14341;51.256;22.478;2023-04-29T13:24:22;12.93;;;4.55;;
26742;SDS011;14341;51.256;22.478;2023-04-29T13:27:26;8.48;;;4.72;;
26742;SDS011;14341;51.256;22.478;2023-04-29T13:30:29;9.80;;;5.35;;
26742;SDS011;14341;51.256;22.478;2023-04-29T13:33:35;8.15;;;4.60;;
26742;SDS011;14341;51.256;22.478;2023-04-29T13:36:40;11.48;;;4.97;;
26742;SDS011;14341;51.256;22.478;2023-04-29T13:39:44;8.45;;;4.78;;
26742;SDS011;14341;51.256;22.478;2023-04-29T13:42:48;8.02;;;4.68;;
26742;SDS011;14341;51.256;22.478;2023-04-29T13:46:06;16.10;;;5.13;;
26742;SDS011;14341;51.256;22.478;2023-04-29T13:49:11;11.38;;;5.40;;
26742;SDS011;14341;51.256;22.478;2023-04-29T13:52:35;10.07;;;5.10;;
26742;SDS011;14341;51.256;22.478;2023-04-29T13:55:58;11.82;;;5.28;;
26742;SDS011;14341;51.256;22.478;2023-04-29T13:59:22;11.38;;;4.95;;
26742;SDS011;14341;51.256;22.478;2023-04-29T14:02:28;8.40;;;4.85;;
26742;SDS011;14341;51.256;22.478;2023-04-29T14:05:34;10.98;;;4.70;;
26742;SDS011;14341;51.256;22.478;2023-04-29T14:08:38;16.23;;;5.57;;
26742;SDS011;14341;51.256;22.478;2023-04-29T14:11:41;7.15;;;5.05;;
26742;SDS011;14341;51.256;22.478;2023-04-29T14:14:44;8.20;;;5.07;;
26742;SDS011;14341;51.256;22.478;2023-04-29T14:17:48;12.73;;;5.00;;
26742;SDS011;14341;51.256;22.478;2023-04-29T14:20:53;11.35;;;4.90;;
26742;SDS011;14341;51.256;22.478;2023-04-29T14:23:56;11.18;;;4.78;;
26742;SDS011;14341;51.256;22.478;2023-04-29T14:27:00;11.48;;;4.97;;
26742;SDS011;14341;51.256;22.478;2023-04-29T14:30:04;12.65;;;4.90;;
26742;SDS011;14341;51.256;22.478;2023-04-29T14:33:09;9.40;;;4.90;;
26742;SDS011;14341;51.256;22.478;2023-04-29T14:36:13;13.52;;;4.63;;
26742;SDS011;14341;51.256;22.478;2023-04-29T14:39:16;8.93;;;5.38;;
26742;SDS011;14341;51.256;22.478;2023-04-29T14:42:20;9.35;;;5.28;;
26742;SDS011;14341;51.256;22.478;2023-04-29T14:45:23;9.68;;;5.20;;
26742;SDS011;14341;51.256;22.478;2023-04-29T14:48:27;8.95;;;5.22;;
26742;SDS011;14341;51.256;22.478;2023-04-29T14:51:31;11.52;;;4.95;;
26742;SDS011;14341;51.256;22.478;2023-04-29T14:54:35;10.38;;;5.07;;
26742;SDS011;14341;51.256;22.478;2023-04-29T14:57:38;9.48;;;4.85;;
26742;SDS011;14341;51.256;22.478;2023-04-29T15:00:42;8.65;;;4.70;;
26742;SDS011;14341;51.256;22.478;2023-04-29T15:03:45;10.90;;;5.13;;
26742;SDS011;14341;51.256;22.478;2023-04-29T15:06:50;10.20;;;5.13;;
26742;SDS011;14341;51.256;22.478;2023-04-29T15:09:53;9.80;;;4.90;;
26742;SDS011;14341;51.256;22.478;2023-04-29T15:12:56;9.63;;;5.13;;
26742;SDS011;14341;51.256;22.478;2023-04-29T15:16:00;8.45;;;4.47;;
26742;SDS011;14341;51.256;22.478;2023-04-29T15:19:04;9.38;;;4.70;;
26742;SDS011;14341;51.256;22.478;2023-04-29T15:22:09;9.77;;;5.25;;
26742;SDS011;14341;51.256;22.478;2023-04-29T15:25:13;10.10;;;4.60;;
26742;SDS011;14341;51.256;22.478;2023-04-29T15:28:16;7.25;;;4.80;;
26742;SDS011;14341;51.256;22.478;2023-04-29T15:31:19;8.82;;;4.78;;
26742;SDS011;14341;51.256;22.478;2023-04-29T15:34:25;8.90;;;4.65;;
26742;SDS011;14341;51.256;22.478;2023-04-29T15:37:30;11.48;;;4.78;;
26742;SDS011;14341;51.256;22.478;2023-04-29T15:40:35;10.63;;;4.75;;
26742;SDS011;14341;51.256;22.478;2023-04-29T15:43:38;7.90;;;4.47;;
26742;SDS011;14341;51.256;22.478;2023-04-29T15:46:41;8.40;;;4.70;;
26742;SDS011;14341;51.256;22.478;2023-04-29T15:49:45;7.90;;;4.60;;
26742;SDS011;14341;51.256;22.478;2023-04-29T15:52:49;11.85;;;4.22;;
26742;SDS011;14341;51.256;22.478;2023-04-29T15:55:56;10.15;;;4.80;;
26742;SDS011;14341;51.256;22.478;2023-04-29T15:59:00;8.55;;;4.90;;
26742;SDS011;14341;51.256;22.478;2023-04-29T16:02:04;9.25;;;4.85;;
26742;SDS011;14341;51.256;22.478;2023-04-29T16:05:11;11.02;;;4.55;;
26742;SDS011;14341;51.256;22.478;2023-04-29T16:08:16;12.30;;;5.10;;
26742;SDS011;14341;51.256;22.478;2023-04-29T16:11:19;9.68;;;5.00;;
26742;SDS011;14341;51.256;22.478;2023-04-29T16:14:23;12.85;;;5.40;;
26742;SDS011;14341;51.256;22.478;2023-04-29T16:17:27;11.98;;;5.28;;
26742;SDS011;14341;51.256;22.478;2023-04-29T16:20:34;9.73;;;4.35;;
26742;SDS011;14341;51.256;22.478;2023-04-29T16:23:40;7.97;;;4.72;;
26742;SDS011;14341;51.256;22.478;2023-04-29T16:26:44;7.13;;;4.45;;
26742;SDS011;14341;51.256;22.478;2023-04-29T16:29:48;8.00;;;4.50;;
26742;SDS011;14341;51.256;22.478;2023-04-29T16:32:55;10.07;;;4.65;;
26742;SDS011;14341;51.256;22.478;2023-04-29T16:35:59;11.40;;;5.18;;
26742;SDS011;14341;51.256;22.478;2023-04-29T16:39:05;12.32;;;6.05;;
26742;SDS011;14341;51.256;22.478;2023-04-29T16:42:09;11.07;;;5.45;;
26742;SDS011;14341;51.256;22.478;2023-04-29T16:45:13;8.18;;;5.07;;
26742;SDS011;14341;51.256;22.478;2023-04-29T16:48:16;13.05;;;5.88;;
26742;SDS011;14341;51.256;22.478;2023-04-29T16:51:21;9.75;;;6.65;;
26742;SDS011;14341;51.256;22.478;2023-04-29T16:54:27;22.10;;;12.55;;
26742;SDS011;14341;51.256;22.478;2023-04-29T16:57:31;45.42;;;23.38;;
26742;SDS011;14341;51.256;22.478;2023-04-29T17:00:36;12.32;;;7.90;;
26742;SDS011;14341;51.256;22.478;2023-04-29T17:03:39;12.52;;;7.45;;
26742;SDS011;14341;51.256;22.478;2023-04-29T17:06:43;11.75;;;7.50;;
26742;SDS011;14341;51.256;22.478;2023-04-29T17:09:49;10.55;;;7.32;;
26742;SDS011;14341;51.256;22.478;2023-04-29T17:12:53;21.58;;;7.65;;
26742;SDS011;14341;51.256;22.478;2023-04-29T17:15:56;20.75;;;8.75;;
26742;SDS011;14341;51.256;22.478;2023-04-29T17:19:00;17.38;;;7.55;;
26742;SDS011;14341;51.256;22.478;2023-04-29T17:22:03;17.10;;;9.98;;
26742;SDS011;14341;51.256;22.478;2023-04-29T17:25:10;17.15;;;10.30;;
26742;SDS011;14341;51.256;22.478;2023-04-29T17:28:15;14.25;;;8.93;;
26742;SDS011;14341;51.256;22.478;2023-04-29T17:31:18;17.33;;;8.70;;
26742;SDS011;14341;51.256;22.478;2023-04-29T17:34:26;15.85;;;9.18;;
26742;SDS011;14341;51.256;22.478;2023-04-29T17:37:31;14.32;;;8.57;;
26742;SDS011;14341;51.256;22.478;2023-04-29T17:40:36;17.88;;;8.93;;
26742;SDS011;14341;51.256;22.478;2023-04-29T17:43:39;19.58;;;9.55;;
26742;SDS011;14341;51.256;22.478;2023-04-29T17:46:43;17.15;;;9.52;;
26742;SDS011;14341;51.256;22.478;2023-04-29T17:49:46;18.30;;;10.75;;
26742;SDS011;14341;51.256;22.478;2023-04-29T17:52:52;19.33;;;10.55;;
26742;SDS011;14341;51.256;22.478;2023-04-29T17:55:57;17.60;;;9.75;;
26742;SDS011;14341;51.256;22.478;2023-04-29T17:59:01;21.77;;;10.07;;
26742;SDS011;14341;51.256;22.478;2023-04-29T18:02:05;20.52;;;9.68;;
26742;SDS011;14341;51.256;22.478;2023-04-29T18:05:09;22.67;;;9.85;;